sensor_id;sensor_type;location;lat;lon;timestamp;temperature;humidity
21662;DHT22;10992;48.170;8.596;2024-01-10T00:02:05;-5.90;99.90
21662;DHT22;10992;48.170;8.596;2024-01-10T00:04:32;-6.00;99.90
21662;DHT22;10992;48.170;8.596;2024-01-10T00:06:59;-5.90;99.90
21662;DHT22;10992;48.170;8.596;2024-01-10T00:09:26;-5.90;99.90
21662;DHT22;10992;48.170;8.596;2024-01-10T00:11:53;-5.80;99.90
21662;DHT22;10992;48.170;8.596;2024-01-10T00:14:20;-5.90;99.90
21662;DHT22;10992;48.170;8.596;2024-01-10T00:16:46;-5.90;99.90
21662;DHT22;10992;48.170;8.596;2024-01-10T00:19:13;-5.90;99.90
21662;DHT22;10992;48.170;8.596;2024-01-10T00:21:40;-5.90;99.90
21662;DHT22;10992;48.170;8.596;2024-01-10T00:24:07;-5.90;99.90
21662;DHT22;10992;48.170;8.596;2024-01-10T00:26:37;-5.90;99.90
21662;DHT22;10992;48.170;8.596;2024-01-10T00:29:05;-5.90;99.90
21662;DHT22;10992;48.170;8.596;2024-01-10T00:31:32;-5.90;99.90
21662;DHT22;10992;48.170;8.596;2024-01-10T00:33:59;-5.90;99.90
21662;DHT22;10992;48.170;8.596;2024-01-10T00:36:26;-5.90;99.90
21662;DHT22;10992;48.170;8.596;2024-01-10T00:38:53;-6.00;99.90
21662;DHT22;10992;48.170;8.596;2024-01-10T00:41:20;-6.00;99.90
21662;DHT22;10992;48.170;8.596;2024-01-10T00:43:47;-6.00;99.90
21662;DHT22;10992;48.170;8.596;2024-01-10T00:46:13;-6.00;99.90
21662;DHT22;10992;48.170;8.596;2024-01-10T00:48:40;-6.00;99.90
21662;DHT22;10992;48.170;8.596;2024-01-10T00:51:07;-6.00;99.90
21662;DHT22;10992;48.170;8.596;2024-01-10T00:53:36;-6.00;99.90
21662;DHT22;10992;48.170;8.596;2024-01-10T00:56:06;-6.10;99.90
21662;DHT22;10992;48.170;8.596;2024-01-10T00:58:33;-6.10;99.90
21662;DHT22;10992;48.170;8.596;2024-01-10T01:00:59;-6.10;99.90
21662;DHT22;10992;48.170;8.596;2024-01-10T01:03:27;-6.10;99.90
21662;DHT22;10992;48.170;8.596;2024-01-10T01:05:54;-6.00;99.90
21662;DHT22;10992;48.170;8.596;2024-01-10T01:08:21;-6.10;99.90
21662;DHT22;10992;48.170;8.596;2024-01-10T01:10:48;-6.10;99.90
21662;DHT22;10992;48.170;8.596;2024-01-10T01:13:14;-6.10;99.90
21662;DHT22;10992;48.170;8.596;2024-01-10T01:15:41;-6.10;99.90
21662;DHT22;10992;48.170;8.596;2024-01-10T01:18:08;-6.00;99.90
21662;DHT22;10992;48.170;8.596;2024-01-10T01:20:37;-6.00;99.90
21662;DHT22;10992;48.170;8.596;2024-01-10T01:23:04;-6.00;99.90
21662;DHT22;10992;48.170;8.596;2024-01-10T01:25:31;-6.00;99.90
21662;DHT22;10992;48.170;8.596;2024-01-10T01:27:57;-6.10;99.90
21662;DHT22;10992;48.170;8.596;2024-01-10T01:30:24;-6.10;99.90
21662;DHT22;10992;48.170;8.596;2024-01-10T01:32:51;-6.20;99.90
21662;DHT22;10992;48.170;8.596;2024-01-10T01:35:19;-6.10;99.90
21662;DHT22;10992;48.170;8.596;2024-01-10T01:37:49;-6.10;99.90
21662;DHT22;10992;48.170;8.596;2024-01-10T01:40:18;-6.00;99.90
21662;DHT22;10992;48.170;8.596;2024-01-10T01:42:45;-6.10;99.90
21662;DHT22;10992;48.170;8.596;2024-01-10T01:45:13;-6.10;99.90
21662;DHT22;10992;48.170;8.596;2024-01-10T01:47:40;-6.20;99.90
21662;DHT22;10992;48.170;8.596;2024-01-10T01:50:08;-6.20;99.90
21662;DHT22;10992;48.170;8.596;2024-01-10T01:52:36;-6.20;99.90
21662;DHT22;10992;48.170;8.596;2024-01-10T01:55:07;-6.30;99.90
21662;DHT22;10992;48.170;8.596;2024-01-10T01:57:35;-6.20;99.90
21662;DHT22;10992;48.170;8.596;2024-01-10T02:00:04;-6.20;99.90
21662;DHT22;10992;48.170;8.596;2024-01-10T02:02:31;-6.30;99.90
21662;DHT22;10992;48.170;8.596;2024-01-10T02:04:59;-6.30;99.90
21662;DHT22;10992;48.170;8.596;2024-01-10T02:07:27;-6.40;99.90
21662;DHT22;10992;48.170;8.596;2024-01-10T02:09:54;-6.30;99.90
21662;DHT22;10992;48.170;8.596;2024-01-10T02:12:21;-6.20;99.90
21662;DHT22;10992;48.170;8.596;2024-01-10T02:14:48;-6.00;99.90
21662;DHT22;10992;48.170;8.596;2024-01-10T02:17:15;-5.90;99.90
21662;DHT22;10992;48.170;8.596;2024-01-10T02:19:43;-5.90;99.90
21662;DHT22;10992;48.170;8.596;2024-01-10T02:22:10;-6.00;99.90
21662;DHT22;10992;48.170;8.596;2024-01-10T02:24:38;-5.90;99.90
21662;DHT22;10992;48.170;8.596;2024-01-10T02:27:05;-5.90;99.90
21662;DHT22;10992;48.170;8.596;2024-01-10T02:31:59;-5.90;99.90
21662;DHT22;10992;48.170;8.596;2024-01-10T02:34:26;-6.00;99.90
21662;DHT22;10992;48.170;8.596;2024-01-10T02:36:52;-6.00;99.90
21662;DHT22;10992;48.170;8.596;2024-01-10T02:39:20;-6.20;99.90
21662;DHT22;10992;48.170;8.596;2024-01-10T02:41:47;-6.20;99.90
21662;DHT22;10992;48.170;8.596;2024-01-10T02:44:13;-6.20;99.90
21662;DHT22;10992;48.170;8.596;2024-01-10T02:46:41;-6.20;99.90
21662;DHT22;10992;48.170;8.596;2024-01-10T02:49:08;-6.20;99.90
21662;DHT22;10992;48.170;8.596;2024-01-10T02:51:35;-6.30;99.90
21662;DHT22;10992;48.170;8.596;2024-01-10T02:54:02;-6.30;99.90
21662;DHT22;10992;48.170;8.596;2024-01-10T02:56:28;-6.30;99.90
21662;DHT22;10992;48.170;8.596;2024-01-10T02:58:55;-6.30;99.90
21662;DHT22;10992;48.170;8.596;2024-01-10T03:01:22;-6.20;99.90
21662;DHT22;10992;48.170;8.596;2024-01-10T03:03:49;-6.20;99.90
21662;DHT22;10992;48.170;8.596;2024-01-10T03:06:16;-6.10;99.90
21662;DHT22;10992;48.170;8.596;2024-01-10T03:08:43;-6.00;99.90
21662;DHT22;10992;48.170;8.596;2024-01-10T03:11:09;-6.10;99.90
21662;DHT22;10992;48.170;8.596;2024-01-10T03:13:37;-6.10;99.90
21662;DHT22;10992;48.170;8.596;2024-01-10T03:16:05;-6.20;99.90
21662;DHT22;10992;48.170;8.596;2024-01-10T03:18:32;-6.10;99.90
21662;DHT22;10992;48.170;8.596;2024-01-10T03:20:59;-6.10;99.90
21662;DHT22;10992;48.170;8.596;2024-01-10T03:23:26;-6.00;99.90
21662;DHT22;10992;48.170;8.596;2024-01-10T03:25:55;-6.00;99.90
21662;DHT22;10992;48.170;8.596;2024-01-10T03:28:23;-5.90;99.90
21662;DHT22;10992;48.170;8.596;2024-01-10T03:30:50;-6.00;99.90
21662;DHT22;10992;48.170;8.596;2024-01-10T03:33:17;-6.10;99.90
21662;DHT22;10992;48.170;8.596;2024-01-10T03:35:45;-6.10;99.90
21662;DHT22;10992;48.170;8.596;2024-01-10T03:38:11;-6.20;99.90
21662;DHT22;10992;48.170;8.596;2024-01-10T03:40:38;-6.20;99.90
21662;DHT22;10992;48.170;8.596;2024-01-10T03:43:05;-6.30;99.90
21662;DHT22;10992;48.170;8.596;2024-01-10T03:45:32;-6.30;99.90
21662;DHT22;10992;48.170;8.596;2024-01-10T03:47:59;-6.40;99.90
21662;DHT22;10992;48.170;8.596;2024-01-10T03:50:27;-6.40;99.90
21662;DHT22;10992;48.170;8.596;2024-01-10T03:52:54;-6.40;99.90
21662;DHT22;10992;48.170;8.596;2024-01-10T03:55:21;-6.50;99.90
21662;DHT22;10992;48.170;8.596;2024-01-10T03:57:47;-6.50;99.90
21662;DHT22;10992;48.170;8.596;2024-01-10T04:00:14;-6.50;99.90
21662;DHT22;10992;48.170;8.596;2024-01-10T04:02:42;-6.50;99.90
21662;DHT22;10992;48.170;8.596;2024-01-10T04:05:09;-6.50;99.90
21662;DHT22;10992;48.170;8.596;2024-01-10T04:07:38;-6.40;99.90
21662;DHT22;10992;48.170;8.596;2024-01-10T04:10:06;-6.50;99.90
21662;DHT22;10992;48.170;8.596;2024-01-10T04:12:34;-6.40;99.90
21662;DHT22;10992;48.170;8.596;2024-01-10T04:15:01;-6.50;99.90
21662;DHT22;10992;48.170;8.596;2024-01-10T04:17:28;-6.50;99.90
21662;DHT22;10992;48.170;8.596;2024-01-10T04:19:55;-6.40;99.90
21662;DHT22;10992;48.170;8.596;2024-01-10T04:22:23;-6.50;99.90
21662;DHT22;10992;48.170;8.596;2024-01-10T04:24:52;-6.50;99.90
21662;DHT22;10992;48.170;8.596;2024-01-10T04:27:19;-6.50;99.90
21662;DHT22;10992;48.170;8.596;2024-01-10T04:29:46;-6.50;99.90
21662;DHT22;10992;48.170;8.596;2024-01-10T04:32:12;-6.40;99.90
21662;DHT22;10992;48.170;8.596;2024-01-10T04:34:40;-6.40;99.90
21662;DHT22;10992;48.170;8.596;2024-01-10T04:37:07;-6.40;99.90
21662;DHT22;10992;48.170;8.596;2024-01-10T04:39:34;-6.40;99.90
21662;DHT22;10992;48.170;8.596;2024-01-10T04:42:01;-6.40;99.90
21662;DHT22;10992;48.170;8.596;2024-01-10T04:44:28;-6.40;99.90
21662;DHT22;10992;48.170;8.596;2024-01-10T04:46:55;-6.30;99.90
21662;DHT22;10992;48.170;8.596;2024-01-10T04:49:22;-6.20;99.90
21662;DHT22;10992;48.170;8.596;2024-01-10T04:51:50;-6.20;99.90
21662;DHT22;10992;48.170;8.596;2024-01-10T04:54:17;-6.20;99.90
21662;DHT22;10992;48.170;8.596;2024-01-10T04:59:11;-6.20;99.90
21662;DHT22;10992;48.170;8.596;2024-01-10T05:01:39;-6.20;99.90
21662;DHT22;10992;48.170;8.596;2024-01-10T05:04:06;-6.10;99.90
21662;DHT22;10992;48.170;8.596;2024-01-10T05:06:33;-6.10;99.90
21662;DHT22;10992;48.170;8.596;2024-01-10T05:09:00;-6.10;99.90
21662;DHT22;10992;48.170;8.596;2024-01-10T05:11:27;-6.00;99.90
21662;DHT22;10992;48.170;8.596;2024-01-10T05:13:54;-6.00;99.90
21662;DHT22;10992;48.170;8.596;2024-01-10T05:16:21;-6.00;99.90
21662;DHT22;10992;48.170;8.596;2024-01-10T05:18:48;-6.00;99.90
21662;DHT22;10992;48.170;8.596;2024-01-10T05:21:15;-6.00;99.90
21662;DHT22;10992;48.170;8.596;2024-01-10T05:23:42;-6.00;99.90
21662;DHT22;10992;48.170;8.596;2024-01-10T05:26:09;-6.00;99.90
21662;DHT22;10992;48.170;8.596;2024-01-10T05:28:35;-6.00;99.90
21662;DHT22;10992;48.170;8.596;2024-01-10T05:31:02;-6.00;99.90
21662;DHT22;10992;48.170;8.596;2024-01-10T05:33:29;-6.00;99.90
21662;DHT22;10992;48.170;8.596;2024-01-10T05:35:56;-6.00;99.90
21662;DHT22;10992;48.170;8.596;2024-01-10T05:38:24;-6.00;99.90
21662;DHT22;10992;48.170;8.596;2024-01-10T05:40:51;-6.10;99.90
21662;DHT22;10992;48.170;8.596;2024-01-10T05:43:19;-6.10;99.90
21662;DHT22;10992;48.170;8.596;2024-01-10T05:45:45;-6.10;99.90
21662;DHT22;10992;48.170;8.596;2024-01-10T05:48:12;-6.10;99.90
21662;DHT22;10992;48.170;8.596;2024-01-10T05:50:39;-6.20;99.90
21662;DHT22;10992;48.170;8.596;2024-01-10T05:53:06;-6.20;99.90
21662;DHT22;10992;48.170;8.596;2024-01-10T05:55:35;-6.30;99.90
21662;DHT22;10992;48.170;8.596;2024-01-10T05:58:03;-6.30;99.90
21662;DHT22;10992;48.170;8.596;2024-01-10T06:00:30;-6.20;99.90
21662;DHT22;10992;48.170;8.596;2024-01-10T06:02:57;-6.10;99.90
21662;DHT22;10992;48.170;8.596;2024-01-10T06:05:24;-6.00;99.90
21662;DHT22;10992;48.170;8.596;2024-01-10T06:07:51;-6.00;99.90
21662;DHT22;10992;48.170;8.596;2024-01-10T06:10:19;-5.90;99.90
21662;DHT22;10992;48.170;8.596;2024-01-10T06:12:46;-5.90;99.90
21662;DHT22;10992;48.170;8.596;2024-01-10T06:15:13;-6.00;99.90
21662;DHT22;10992;48.170;8.596;2024-01-10T06:17:40;-6.00;99.90
21662;DHT22;10992;48.170;8.596;2024-01-10T06:20:07;-6.10;99.90
21662;DHT22;10992;48.170;8.596;2024-01-10T06:22:35;-6.10;99.90
21662;DHT22;10992;48.170;8.596;2024-01-10T06:25:02;-6.20;99.90
21662;DHT22;10992;48.170;8.596;2024-01-10T06:27:31;-6.10;99.90
21662;DHT22;10992;48.170;8.596;2024-01-10T06:29:58;-6.10;99.90
21662;DHT22;10992;48.170;8.596;2024-01-10T06:32:24;-6.10;99.90
21662;DHT22;10992;48.170;8.596;2024-01-10T06:34:52;-6.10;99.90
21662;DHT22;10992;48.170;8.596;2024-01-10T06:37:19;-6.10;99.90
21662;DHT22;10992;48.170;8.596;2024-01-10T06:39:46;-6.10;99.90
21662;DHT22;10992;48.170;8.596;2024-01-10T06:42:13;-6.10;99.90
21662;DHT22;10992;48.170;8.596;2024-01-10T06:44:40;-6.10;99.90
21662;DHT22;10992;48.170;8.596;2024-01-10T06:47:07;-5.90;99.90
21662;DHT22;10992;48.170;8.596;2024-01-10T06:49:34;-5.90;99.90
21662;DHT22;10992;48.170;8.596;2024-01-10T06:52:02;-4.90;99.90
21662;DHT22;10992;48.170;8.596;2024-01-10T06:54:29;-4.60;99.90
21662;DHT22;10992;48.170;8.596;2024-01-10T06:56:55;-4.30;99.90
21662;DHT22;10992;48.170;8.596;2024-01-10T06:59:22;-4.20;99.90
21662;DHT22;10992;48.170;8.596;2024-01-10T07:01:53;-4.10;99.90
21662;DHT22;10992;48.170;8.596;2024-01-10T07:04:20;-4.70;99.90
21662;DHT22;10992;48.170;8.596;2024-01-10T07:06:50;-5.20;99.90
21662;DHT22;10992;48.170;8.596;2024-01-10T07:09:17;-5.60;99.90
21662;DHT22;10992;48.170;8.596;2024-01-10T07:11:47;-5.80;99.90
21662;DHT22;10992;48.170;8.596;2024-01-10T07:14:14;-5.80;99.90
21662;DHT22;10992;48.170;8.596;2024-01-10T07:16:42;-5.90;99.90
21662;DHT22;10992;48.170;8.596;2024-01-10T07:19:13;-5.90;99.90
21662;DHT22;10992;48.170;8.596;2024-01-10T07:21:41;-5.90;99.90
21662;DHT22;10992;48.170;8.596;2024-01-10T07:24:08;-5.80;99.90
21662;DHT22;10992;48.170;8.596;2024-01-10T07:26:37;-5.90;99.90
21662;DHT22;10992;48.170;8.596;2024-01-10T07:29:04;-5.80;99.90
21662;DHT22;10992;48.170;8.596;2024-01-10T07:31:35;-5.90;99.90
21662;DHT22;10992;48.170;8.596;2024-01-10T07:34:02;-5.90;99.90
21662;DHT22;10992;48.170;8.596;2024-01-10T07:36:33;-5.80;99.90
21662;DHT22;10992;48.170;8.596;2024-01-10T07:39:02;-5.80;99.90
21662;DHT22;10992;48.170;8.596;2024-01-10T07:41:30;-5.80;99.90
21662;DHT22;10992;48.170;8.596;2024-01-10T07:43:57;-5.90;99.90
21662;DHT22;10992;48.170;8.596;2024-01-10T07:46:24;-5.80;99.90
21662;DHT22;10992;48.170;8.596;2024-01-10T07:48:53;-5.80;99.90
21662;DHT22;10992;48.170;8.596;2024-01-10T07:51:20;-5.70;99.90
21662;DHT22;10992;48.170;8.596;2024-01-10T07:53:48;-5.70;99.90
21662;DHT22;10992;48.170;8.596;2024-01-10T07:56:15;-5.60;99.90
21662;DHT22;10992;48.170;8.596;2024-01-10T07:58:42;-5.50;99.90
21662;DHT22;10992;48.170;8.596;2024-01-10T08:01:08;-5.50;99.90
21662;DHT22;10992;48.170;8.596;2024-01-10T08:03:38;-5.40;99.90
21662;DHT22;10992;48.170;8.596;2024-01-10T08:06:06;-5.40;99.90
21662;DHT22;10992;48.170;8.596;2024-01-10T08:08:46;-5.40;99.90
21662;DHT22;10992;48.170;8.596;2024-01-10T08:11:13;-5.30;99.90
21662;DHT22;10992;48.170;8.596;2024-01-10T08:13:39;-5.30;99.90
21662;DHT22;10992;48.170;8.596;2024-01-10T08:16:07;-5.20;99.90
21662;DHT22;10992;48.170;8.596;2024-01-10T08:18:35;-5.20;99.90
21662;DHT22;10992;48.170;8.596;2024-01-10T08:21:02;-5.10;99.90
21662;DHT22;10992;48.170;8.596;2024-01-10T08:23:31;-5.10;99.90
21662;DHT22;10992;48.170;8.596;2024-01-10T08:25:57;-5.00;99.90
21662;DHT22;10992;48.170;8.596;2024-01-10T08:28:24;-5.00;99.90
21662;DHT22;10992;48.170;8.596;2024-01-10T08:30:52;-5.00;99.90
21662;DHT22;10992;48.170;8.596;2024-01-10T08:33:25;-4.90;99.90
21662;DHT22;10992;48.170;8.596;2024-01-10T08:35:52;-5.00;99.90
21662;DHT22;10992;48.170;8.596;2024-01-10T08:38:20;-4.90;99.90
21662;DHT22;10992;48.170;8.596;2024-01-10T08:40:47;-5.00;99.90
21662;DHT22;10992;48.170;8.596;2024-01-10T08:43:14;-4.90;99.90
21662;DHT22;10992;48.170;8.596;2024-01-10T08:45:41;-4.90;99.90
21662;DHT22;10992;48.170;8.596;2024-01-10T08:48:08;-4.70;99.90
21662;DHT22;10992;48.170;8.596;2024-01-10T08:50:36;-4.60;99.90
21662;DHT22;10992;48.170;8.596;2024-01-10T08:53:04;-4.50;99.90
21662;DHT22;10992;48.170;8.596;2024-01-10T08:55:32;-4.50;99.90
21662;DHT22;10992;48.170;8.596;2024-01-10T08:58:00;-4.40;99.90
21662;DHT22;10992;48.170;8.596;2024-01-10T09:00:28;-4.40;99.90
21662;DHT22;10992;48.170;8.596;2024-01-10T09:02:55;-4.40;99.90
21662;DHT22;10992;48.170;8.596;2024-01-10T09:05:22;-4.40;99.90
21662;DHT22;10992;48.170;8.596;2024-01-10T09:07:49;-4.30;99.90
21662;DHT22;10992;48.170;8.596;2024-01-10T09:10:16;-4.30;99.90
21662;DHT22;10992;48.170;8.596;2024-01-10T09:12:43;-4.40;99.90
21662;DHT22;10992;48.170;8.596;2024-01-10T09:15:13;-4.30;99.90
21662;DHT22;10992;48.170;8.596;2024-01-10T09:17:42;-4.30;99.90
21662;DHT22;10992;48.170;8.596;2024-01-10T09:20:09;-4.20;99.90
21662;DHT22;10992;48.170;8.596;2024-01-10T09:22:39;-4.10;99.90
21662;DHT22;10992;48.170;8.596;2024-01-10T09:25:07;-4.00;99.90
21662;DHT22;10992;48.170;8.596;2024-01-10T09:27:34;-4.00;99.90
21662;DHT22;10992;48.170;8.596;2024-01-10T09:30:02;-4.00;99.90
21662;DHT22;10992;48.170;8.596;2024-01-10T09:32:29;-3.90;99.90
21662;DHT22;10992;48.170;8.596;2024-01-10T09:34:56;-3.70;99.90
21662;DHT22;10992;48.170;8.596;2024-01-10T09:37:23;-3.80;99.90
21662;DHT22;10992;48.170;8.596;2024-01-10T09:39:50;-4.00;99.90
21662;DHT22;10992;48.170;8.596;2024-01-10T09:42:17;-3.90;99.90
21662;DHT22;10992;48.170;8.596;2024-01-10T09:44:45;-3.80;99.90
21662;DHT22;10992;48.170;8.596;2024-01-10T09:47:13;-3.70;99.90
21662;DHT22;10992;48.170;8.596;2024-01-10T09:49:41;-3.40;99.90
21662;DHT22;10992;48.170;8.596;2024-01-10T09:52:25;-3.30;99.90
21662;DHT22;10992;48.170;8.596;2024-01-10T09:54:57;-3.00;99.90
21662;DHT22;10992;48.170;8.596;2024-01-10T09:57:24;-3.00;99.90
21662;DHT22;10992;48.170;8.596;2024-01-10T09:59:52;-2.70;99.90
21662;DHT22;10992;48.170;8.596;2024-01-10T10:02:38;-2.80;99.90
21662;DHT22;10992;48.170;8.596;2024-01-10T10:05:23;-2.00;99.90
21662;DHT22;10992;48.170;8.596;2024-01-10T10:07:51;-1.70;99.90
21662;DHT22;10992;48.170;8.596;2024-01-10T10:10:20;-1.40;99.90
21662;DHT22;10992;48.170;8.596;2024-01-10T10:12:48;-0.80;99.90
21662;DHT22;10992;48.170;8.596;2024-01-10T10:15:20;-0.70;99.90
21662;DHT22;10992;48.170;8.596;2024-01-10T10:17:53;-0.50;99.90
21662;DHT22;10992;48.170;8.596;2024-01-10T10:20:22;-0.50;99.90
21662;DHT22;10992;48.170;8.596;2024-01-10T10:23:08;-0.50;99.90
21662;DHT22;10992;48.170;8.596;2024-01-10T10:25:44;-0.30;99.90
21662;DHT22;10992;48.170;8.596;2024-01-10T10:28:11;-0.20;99.90
21662;DHT22;10992;48.170;8.596;2024-01-10T10:30:55;-0.40;99.90
21662;DHT22;10992;48.170;8.596;2024-01-10T10:33:22;-0.70;99.90
21662;DHT22;10992;48.170;8.596;2024-01-10T10:35:50;-0.70;99.90
21662;DHT22;10992;48.170;8.596;2024-01-10T10:38:22;-0.70;99.90
21662;DHT22;10992;48.170;8.596;2024-01-10T10:40:49;-0.90;99.90
21662;DHT22;10992;48.170;8.596;2024-01-10T10:43:18;-0.70;99.90
21662;DHT22;10992;48.170;8.596;2024-01-10T10:45:49;-0.30;99.90
21662;DHT22;10992;48.170;8.596;2024-01-10T10:48:20;-0.30;99.90
21662;DHT22;10992;48.170;8.596;2024-01-10T10:50:58;-0.10;99.90
21662;DHT22;10992;48.170;8.596;2024-01-10T10:53:27;0.10;99.90
21662;DHT22;10992;48.170;8.596;2024-01-10T10:55:57;0.30;99.90
21662;DHT22;10992;48.170;8.596;2024-01-10T10:58:25;0.40;99.90
21662;DHT22;10992;48.170;8.596;2024-01-10T11:00:54;0.50;99.90
21662;DHT22;10992;48.170;8.596;2024-01-10T11:03:21;0.50;99.90
21662;DHT22;10992;48.170;8.596;2024-01-10T11:05:51;0.60;99.90
21662;DHT22;10992;48.170;8.596;2024-01-10T11:08:20;0.50;99.90
21662;DHT22;10992;48.170;8.596;2024-01-10T11:10:50;0.70;99.90
21662;DHT22;10992;48.170;8.596;2024-01-10T11:13:38;1.10;99.90
21662;DHT22;10992;48.170;8.596;2024-01-10T11:22:00;1.40;99.90
21662;DHT22;10992;48.170;8.596;2024-01-10T11:24:30;1.10;99.90
21662;DHT22;10992;48.170;8.596;2024-01-10T11:27:11;1.40;99.90
21662;DHT22;10992;48.170;8.596;2024-01-10T11:29:39;1.70;99.90
21662;DHT22;10992;48.170;8.596;2024-01-10T11:32:07;2.10;99.90
21662;DHT22;10992;48.170;8.596;2024-01-10T11:34:50;2.00;99.90
21662;DHT22;10992;48.170;8.596;2024-01-10T11:37:17;2.00;99.90
21662;DHT22;10992;48.170;8.596;2024-01-10T11:39:44;2.40;99.90
21662;DHT22;10992;48.170;8.596;2024-01-10T11:42:11;2.70;99.90
21662;DHT22;10992;48.170;8.596;2024-01-10T11:44:49;2.90;99.90
21662;DHT22;10992;48.170;8.596;2024-01-10T11:47:19;3.20;99.90
21662;DHT22;10992;48.170;8.596;2024-01-10T11:49:55;2.80;99.90
21662;DHT22;10992;48.170;8.596;2024-01-10T11:52:22;3.10;99.90
21662;DHT22;10992;48.170;8.596;2024-01-10T11:54:50;3.30;99.90
21662;DHT22;10992;48.170;8.596;2024-01-10T11:59:44;3.40;99.90
21662;DHT22;10992;48.170;8.596;2024-01-10T12:02:15;3.30;99.90
21662;DHT22;10992;48.170;8.596;2024-01-10T12:04:44;3.60;99.90
21662;DHT22;10992;48.170;8.596;2024-01-10T12:07:16;4.00;99.90
21662;DHT22;10992;48.170;8.596;2024-01-10T12:09:46;4.30;99.90
21662;DHT22;10992;48.170;8.596;2024-01-10T12:12:13;4.40;99.90
21662;DHT22;10992;48.170;8.596;2024-01-10T12:14:41;4.60;99.90
21662;DHT22;10992;48.170;8.596;2024-01-10T12:17:08;4.70;99.90
21662;DHT22;10992;48.170;8.596;2024-01-10T12:19:36;4.20;99.90
21662;DHT22;10992;48.170;8.596;2024-01-10T12:22:06;4.00;99.90
21662;DHT22;10992;48.170;8.596;2024-01-10T12:24:42;4.10;99.90
21662;DHT22;10992;48.170;8.596;2024-01-10T12:27:10;3.60;99.90
21662;DHT22;10992;48.170;8.596;2024-01-10T12:29:38;3.50;99.90
21662;DHT22;10992;48.170;8.596;2024-01-10T12:32:05;3.60;99.90
21662;DHT22;10992;48.170;8.596;2024-01-10T12:34:37;3.40;99.90
21662;DHT22;10992;48.170;8.596;2024-01-10T12:37:04;3.70;99.90
21662;DHT22;10992;48.170;8.596;2024-01-10T12:39:32;4.30;99.90
21662;DHT22;10992;48.170;8.596;2024-01-10T12:41:59;4.80;99.90
21662;DHT22;10992;48.170;8.596;2024-01-10T12:44:30;5.30;99.90
21662;DHT22;10992;48.170;8.596;2024-01-10T12:46:57;4.30;99.90
21662;DHT22;10992;48.170;8.596;2024-01-10T12:49:24;3.50;99.90
21662;DHT22;10992;48.170;8.596;2024-01-10T12:51:51;4.00;99.90
21662;DHT22;10992;48.170;8.596;2024-01-10T12:54:18;4.50;99.90
21662;DHT22;10992;48.170;8.596;2024-01-10T12:56:45;4.40;99.90
21662;DHT22;10992;48.170;8.596;2024-01-10T12:59:12;4.30;99.90
21662;DHT22;10992;48.170;8.596;2024-01-10T13:01:40;4.70;99.90
21662;DHT22;10992;48.170;8.596;2024-01-10T13:04:09;3.90;99.90
21662;DHT22;10992;48.170;8.596;2024-01-10T13:06:38;3.60;99.90
21662;DHT22;10992;48.170;8.596;2024-01-10T13:09:05;3.30;99.90
21662;DHT22;10992;48.170;8.596;2024-01-10T13:11:33;3.50;99.90
21662;DHT22;10992;48.170;8.596;2024-01-10T13:14:00;4.30;99.90
21662;DHT22;10992;48.170;8.596;2024-01-10T13:16:27;4.60;99.90
21662;DHT22;10992;48.170;8.596;2024-01-10T13:18:54;4.90;99.90
21662;DHT22;10992;48.170;8.596;2024-01-10T13:21:24;5.10;99.90
21662;DHT22;10992;48.170;8.596;2024-01-10T13:23:51;5.60;99.90
21662;DHT22;10992;48.170;8.596;2024-01-10T13:26:18;5.30;99.90
21662;DHT22;10992;48.170;8.596;2024-01-10T13:28:45;5.30;99.90
21662;DHT22;10992;48.170;8.596;2024-01-10T13:31:12;5.70;99.90
21662;DHT22;10992;48.170;8.596;2024-01-10T13:33:39;6.00;99.90
21662;DHT22;10992;48.170;8.596;2024-01-10T13:36:13;6.30;99.90
21662;DHT22;10992;48.170;8.596;2024-01-10T13:38:41;6.60;99.90
21662;DHT22;10992;48.170;8.596;2024-01-10T13:41:07;6.50;99.90
21662;DHT22;10992;48.170;8.596;2024-01-10T13:43:35;6.80;99.90
21662;DHT22;10992;48.170;8.596;2024-01-10T13:46:02;6.80;99.90
21662;DHT22;10992;48.170;8.596;2024-01-10T13:48:35;6.30;99.90
21662;DHT22;10992;48.170;8.596;2024-01-10T13:51:03;6.80;99.90
21662;DHT22;10992;48.170;8.596;2024-01-10T13:53:30;6.80;99.90
21662;DHT22;10992;48.170;8.596;2024-01-10T13:55:57;7.00;99.90
21662;DHT22;10992;48.170;8.596;2024-01-10T13:58:25;6.90;99.90
21662;DHT22;10992;48.170;8.596;2024-01-10T14:00:52;6.80;99.90
21662;DHT22;10992;48.170;8.596;2024-01-10T14:03:19;6.40;99.90
21662;DHT22;10992;48.170;8.596;2024-01-10T14:05:46;6.00;99.90
21662;DHT22;10992;48.170;8.596;2024-01-10T14:08:13;6.50;99.90
21662;DHT22;10992;48.170;8.596;2024-01-10T14:10:40;6.90;99.90
21662;DHT22;10992;48.170;8.596;2024-01-10T14:13:08;6.90;99.90
21662;DHT22;10992;48.170;8.596;2024-01-10T14:15:35;6.60;99.90
21662;DHT22;10992;48.170;8.596;2024-01-10T14:18:02;6.40;99.90
21662;DHT22;10992;48.170;8.596;2024-01-10T14:20:29;6.20;99.90
21662;DHT22;10992;48.170;8.596;2024-01-10T14:22:57;6.10;99.90
21662;DHT22;10992;48.170;8.596;2024-01-10T14:25:26;5.60;99.90
21662;DHT22;10992;48.170;8.596;2024-01-10T14:27:53;5.50;99.90
21662;DHT22;10992;48.170;8.596;2024-01-10T14:30:20;5.60;99.90
21662;DHT22;10992;48.170;8.596;2024-01-10T14:32:47;5.80;99.90
21662;DHT22;10992;48.170;8.596;2024-01-10T14:35:14;5.50;99.90
21662;DHT22;10992;48.170;8.596;2024-01-10T14:37:42;5.60;99.90
21662;DHT22;10992;48.170;8.596;2024-01-10T14:40:10;5.40;99.90
21662;DHT22;10992;48.170;8.596;2024-01-10T14:42:37;5.30;99.90
21662;DHT22;10992;48.170;8.596;2024-01-10T14:45:04;5.10;99.90
21662;DHT22;10992;48.170;8.596;2024-01-10T14:47:31;5.00;99.90
21662;DHT22;10992;48.170;8.596;2024-01-10T14:49:58;4.80;99.90
21662;DHT22;10992;48.170;8.596;2024-01-10T14:52:25;4.60;99.90
21662;DHT22;10992;48.170;8.596;2024-01-10T14:54:53;4.30;99.90
21662;DHT22;10992;48.170;8.596;2024-01-10T14:57:20;4.10;99.90
21662;DHT22;10992;48.170;8.596;2024-01-10T14:59:48;3.70;99.90
21662;DHT22;10992;48.170;8.596;2024-01-10T15:02:16;3.20;99.90
21662;DHT22;10992;48.170;8.596;2024-01-10T15:04:45;2.90;99.90
21662;DHT22;10992;48.170;8.596;2024-01-10T15:07:12;2.50;99.90
21662;DHT22;10992;48.170;8.596;2024-01-10T15:09:45;2.00;99.90
21662;DHT22;10992;48.170;8.596;2024-01-10T15:12:12;1.60;99.90
21662;DHT22;10992;48.170;8.596;2024-01-10T15:14:40;1.30;99.90
21662;DHT22;10992;48.170;8.596;2024-01-10T15:17:07;1.00;99.90
21662;DHT22;10992;48.170;8.596;2024-01-10T15:19:36;0.70;99.90
21662;DHT22;10992;48.170;8.596;2024-01-10T15:22:04;0.50;99.90
21662;DHT22;10992;48.170;8.596;2024-01-10T15:24:32;0.40;99.90
21662;DHT22;10992;48.170;8.596;2024-01-10T15:26:59;0.30;99.90
21662;DHT22;10992;48.170;8.596;2024-01-10T15:29:29;0.10;99.90
21662;DHT22;10992;48.170;8.596;2024-01-10T15:31:57;0.00;99.90
21662;DHT22;10992;48.170;8.596;2024-01-10T15:34:25;-0.20;99.90
21662;DHT22;10992;48.170;8.596;2024-01-10T15:36:52;-0.40;99.90
21662;DHT22;10992;48.170;8.596;2024-01-10T15:39:19;-0.60;99.90
21662;DHT22;10992;48.170;8.596;2024-01-10T15:41:51;-0.70;99.90
21662;DHT22;10992;48.170;8.596;2024-01-10T15:44:19;-0.90;99.90
21662;DHT22;10992;48.170;8.596;2024-01-10T15:46:47;-1.00;99.90
21662;DHT22;10992;48.170;8.596;2024-01-10T15:49:15;-1.20;99.90
21662;DHT22;10992;48.170;8.596;2024-01-10T15:51:42;-1.20;99.90
21662;DHT22;10992;48.170;8.596;2024-01-10T15:54:09;-1.20;99.90